sensor_id;sensor_type;location;lat;lon;timestamp;temperature;humidity
5508;DHT22;2776;51.046;6.772;2023-04-02T00:01:15;9.20;99.90
5508;DHT22;2776;51.046;6.772;2023-04-02T00:04:15;9.20;99.90
5508;DHT22;2776;51.046;6.772;2023-04-02T00:06:54;9.20;99.90
5508;DHT22;2776;51.046;6.772;2023-04-02T00:09:34;9.10;99.90
5508;DHT22;2776;51.046;6.772;2023-04-02T00:12:17;9.10;99.90
5508;DHT22;2776;51.046;6.772;2023-04-02T00:14:50;9.10;99.90
5508;DHT22;2776;51.046;6.772;2023-04-02T00:17:21;9.10;99.90
5508;DHT22;2776;51.046;6.772;2023-04-02T00:19:51;9.00;99.90
5508;DHT22;2776;51.046;6.772;2023-04-02T00:22:23;9.00;99.90
5508;DHT22;2776;51.046;6.772;2023-04-02T00:24:52;9.00;99.90
5508;DHT22;2776;51.046;6.772;2023-04-02T00:27:20;9.00;99.90
5508;DHT22;2776;51.046;6.772;2023-04-02T00:29:48;9.10;99.90
5508;DHT22;2776;51.046;6.772;2023-04-02T00:32:21;9.00;99.90
5508;DHT22;2776;51.046;6.772;2023-04-02T00:34:48;9.00;99.90
5508;DHT22;2776;51.046;6.772;2023-04-02T00:37:17;9.10;99.90
5508;DHT22;2776;51.046;6.772;2023-04-02T00:39:50;9.10;99.90
5508;DHT22;2776;51.046;6.772;2023-04-02T00:42:18;9.00;99.90
5508;DHT22;2776;51.046;6.772;2023-04-02T00:44:45;9.00;99.90
5508;DHT22;2776;51.046;6.772;2023-04-02T00:47:18;8.90;99.90
5508;DHT22;2776;51.046;6.772;2023-04-02T00:49:50;8.90;99.90
5508;DHT22;2776;51.046;6.772;2023-04-02T00:52:22;8.80;99.90
5508;DHT22;2776;51.046;6.772;2023-04-02T00:54:56;8.80;99.90
5508;DHT22;2776;51.046;6.772;2023-04-02T00:57:25;8.80;99.90
5508;DHT22;2776;51.046;6.772;2023-04-02T00:59:57;8.80;99.90
5508;DHT22;2776;51.046;6.772;2023-04-02T01:02:28;8.70;99.90
5508;DHT22;2776;51.046;6.772;2023-04-02T01:04:57;8.70;99.90
5508;DHT22;2776;51.046;6.772;2023-04-02T01:07:37;8.60;99.90
5508;DHT22;2776;51.046;6.772;2023-04-02T01:10:20;8.60;99.90
5508;DHT22;2776;51.046;6.772;2023-04-02T01:12:57;8.50;99.90
5508;DHT22;2776;51.046;6.772;2023-04-02T01:15:32;8.40;99.90
5508;DHT22;2776;51.046;6.772;2023-04-02T01:18:24;8.40;99.90
5508;DHT22;2776;51.046;6.772;2023-04-02T01:21:17;8.40;99.90
5508;DHT22;2776;51.046;6.772;2023-04-02T01:23:52;8.30;99.90
5508;DHT22;2776;51.046;6.772;2023-04-02T01:26:31;8.30;99.90
5508;DHT22;2776;51.046;6.772;2023-04-02T01:29:06;8.40;99.90
5508;DHT22;2776;51.046;6.772;2023-04-02T01:31:35;8.40;99.90
5508;DHT22;2776;51.046;6.772;2023-04-02T01:34:05;8.40;99.90
5508;DHT22;2776;51.046;6.772;2023-04-02T01:36:38;8.40;99.90
5508;DHT22;2776;51.046;6.772;2023-04-02T01:39:16;8.40;99.90
5508;DHT22;2776;51.046;6.772;2023-04-02T01:41:49;8.40;99.90
5508;DHT22;2776;51.046;6.772;2023-04-02T01:44:23;8.40;99.90
5508;DHT22;2776;51.046;6.772;2023-04-02T01:46:51;8.40;99.90
5508;DHT22;2776;51.046;6.772;2023-04-02T01:49:20;8.50;99.90
5508;DHT22;2776;51.046;6.772;2023-04-02T01:51:51;8.50;99.90
5508;DHT22;2776;51.046;6.772;2023-04-02T01:54:20;8.40;99.90
5508;DHT22;2776;51.046;6.772;2023-04-02T01:56:47;8.30;99.90
5508;DHT22;2776;51.046;6.772;2023-04-02T01:59:17;8.20;99.90
5508;DHT22;2776;51.046;6.772;2023-04-02T02:01:49;8.10;99.90
5508;DHT22;2776;51.046;6.772;2023-04-02T02:04:17;8.10;99.90
5508;DHT22;2776;51.046;6.772;2023-04-02T02:06:45;8.10;99.90
5508;DHT22;2776;51.046;6.772;2023-04-02T02:09:16;8.10;99.90
5508;DHT22;2776;51.046;6.772;2023-04-02T02:11:43;8.00;99.90
5508;DHT22;2776;51.046;6.772;2023-04-02T02:14:14;8.00;99.90
5508;DHT22;2776;51.046;6.772;2023-04-02T02:16:42;8.00;99.90
5508;DHT22;2776;51.046;6.772;2023-04-02T02:19:25;8.00;99.90
5508;DHT22;2776;51.046;6.772;2023-04-02T02:21:55;8.00;99.90
5508;DHT22;2776;51.046;6.772;2023-04-02T02:24:25;8.10;99.90
5508;DHT22;2776;51.046;6.772;2023-04-02T02:27:07;8.10;99.90
5508;DHT22;2776;51.046;6.772;2023-04-02T02:29:42;8.10;99.90
5508;DHT22;2776;51.046;6.772;2023-04-02T02:32:12;8.10;99.90
5508;DHT22;2776;51.046;6.772;2023-04-02T02:34:47;8.00;99.90
5508;DHT22;2776;51.046;6.772;2023-04-02T02:37:18;8.00;99.90
5508;DHT22;2776;51.046;6.772;2023-04-02T02:39:50;8.00;99.90
5508;DHT22;2776;51.046;6.772;2023-04-02T02:42:24;8.00;99.90
5508;DHT22;2776;51.046;6.772;2023-04-02T02:44:53;8.00;99.90
5508;DHT22;2776;51.046;6.772;2023-04-02T02:47:22;8.00;99.90
5508;DHT22;2776;51.046;6.772;2023-04-02T02:49:54;8.00;99.90
5508;DHT22;2776;51.046;6.772;2023-04-02T02:52:25;8.00;99.90
5508;DHT22;2776;51.046;6.772;2023-04-02T02:54:55;7.90;99.90
5508;DHT22;2776;51.046;6.772;2023-04-02T02:57:26;7.90;99.90
5508;DHT22;2776;51.046;6.772;2023-04-02T02:59:56;7.80;99.90
5508;DHT22;2776;51.046;6.772;2023-04-02T03:02:24;7.80;99.90
5508;DHT22;2776;51.046;6.772;2023-04-02T03:04:54;7.70;99.90
5508;DHT22;2776;51.046;6.772;2023-04-02T03:07:24;7.70;99.90
5508;DHT22;2776;51.046;6.772;2023-04-02T03:09:56;7.60;99.90
5508;DHT22;2776;51.046;6.772;2023-04-02T03:12:31;7.60;99.90
5508;DHT22;2776;51.046;6.772;2023-04-02T03:15:04;7.60;99.90
5508;DHT22;2776;51.046;6.772;2023-04-02T03:17:34;7.60;99.90
5508;DHT22;2776;51.046;6.772;2023-04-02T03:20:11;7.60;99.90
5508;DHT22;2776;51.046;6.772;2023-04-02T03:22:44;7.50;99.90
5508;DHT22;2776;51.046;6.772;2023-04-02T03:25:22;7.40;99.90
5508;DHT22;2776;51.046;6.772;2023-04-02T03:27:54;7.40;99.90
5508;DHT22;2776;51.046;6.772;2023-04-02T03:30:28;7.30;99.90
5508;DHT22;2776;51.046;6.772;2023-04-02T03:32:59;7.30;99.90
5508;DHT22;2776;51.046;6.772;2023-04-02T03:35:32;7.20;99.90
5508;DHT22;2776;51.046;6.772;2023-04-02T03:38:03;7.20;99.90
5508;DHT22;2776;51.046;6.772;2023-04-02T03:40:34;7.20;99.90
5508;DHT22;2776;51.046;6.772;2023-04-02T03:43:10;7.20;99.90
5508;DHT22;2776;51.046;6.772;2023-04-02T03:45:40;7.20;99.90
5508;DHT22;2776;51.046;6.772;2023-04-02T03:48:11;7.20;99.90
5508;DHT22;2776;51.046;6.772;2023-04-02T03:50:44;7.30;99.90
5508;DHT22;2776;51.046;6.772;2023-04-02T03:53:12;7.30;99.90
5508;DHT22;2776;51.046;6.772;2023-04-02T03:55:40;7.30;99.90
5508;DHT22;2776;51.046;6.772;2023-04-02T03:58:13;7.30;99.90
5508;DHT22;2776;51.046;6.772;2023-04-02T04:00:47;7.30;99.90
5508;DHT22;2776;51.046;6.772;2023-04-02T04:03:18;7.20;99.90
5508;DHT22;2776;51.046;6.772;2023-04-02T04:05:50;7.30;99.90
5508;DHT22;2776;51.046;6.772;2023-04-02T04:08:20;7.30;99.90
5508;DHT22;2776;51.046;6.772;2023-04-02T04:10:50;7.20;99.90
5508;DHT22;2776;51.046;6.772;2023-04-02T04:13:21;7.20;99.90
5508;DHT22;2776;51.046;6.772;2023-04-02T04:15:53;7.20;99.90
5508;DHT22;2776;51.046;6.772;2023-04-02T04:18:28;7.20;99.90
5508;DHT22;2776;51.046;6.772;2023-04-02T04:21:02;7.20;99.90
5508;DHT22;2776;51.046;6.772;2023-04-02T04:23:32;7.10;99.90
5508;DHT22;2776;51.046;6.772;2023-04-02T04:26:02;7.10;99.90
5508;DHT22;2776;51.046;6.772;2023-04-02T04:28:39;7.10;99.90
5508;DHT22;2776;51.046;6.772;2023-04-02T04:31:14;7.10;99.90
5508;DHT22;2776;51.046;6.772;2023-04-02T04:33:48;7.10;99.90
5508;DHT22;2776;51.046;6.772;2023-04-02T04:36:24;7.10;99.90
5508;DHT22;2776;51.046;6.772;2023-04-02T04:38:54;7.00;99.90
5508;DHT22;2776;51.046;6.772;2023-04-02T04:41:27;6.90;99.90
5508;DHT22;2776;51.046;6.772;2023-04-02T04:44:00;6.90;99.90
5508;DHT22;2776;51.046;6.772;2023-04-02T04:46:32;7.00;99.90
5508;DHT22;2776;51.046;6.772;2023-04-02T04:49:08;7.00;99.90
5508;DHT22;2776;51.046;6.772;2023-04-02T04:51:40;7.00;99.90
5508;DHT22;2776;51.046;6.772;2023-04-02T04:54:10;7.00;99.90
5508;DHT22;2776;51.046;6.772;2023-04-02T04:56:38;7.00;99.90
5508;DHT22;2776;51.046;6.772;2023-04-02T04:59:13;6.90;99.90
5508;DHT22;2776;51.046;6.772;2023-04-02T05:01:45;6.90;99.90
5508;DHT22;2776;51.046;6.772;2023-04-02T05:04:16;6.90;99.90
5508;DHT22;2776;51.046;6.772;2023-04-02T05:06:52;6.80;99.90
5508;DHT22;2776;51.046;6.772;2023-04-02T05:09:23;6.80;99.90
5508;DHT22;2776;51.046;6.772;2023-04-02T05:11:58;6.80;99.90
5508;DHT22;2776;51.046;6.772;2023-04-02T05:14:32;6.80;99.90
5508;DHT22;2776;51.046;6.772;2023-04-02T05:17:04;6.80;99.90
5508;DHT22;2776;51.046;6.772;2023-04-02T05:19:38;6.70;99.90
5508;DHT22;2776;51.046;6.772;2023-04-02T05:22:19;6.70;99.90
5508;DHT22;2776;51.046;6.772;2023-04-02T05:24:53;6.70;99.90
5508;DHT22;2776;51.046;6.772;2023-04-02T05:27:28;6.70;99.90
5508;DHT22;2776;51.046;6.772;2023-04-02T05:30:01;6.70;99.90
5508;DHT22;2776;51.046;6.772;2023-04-02T05:32:33;6.60;99.90
5508;DHT22;2776;51.046;6.772;2023-04-02T05:35:02;6.50;99.90
5508;DHT22;2776;51.046;6.772;2023-04-02T05:37:32;6.60;99.90
5508;DHT22;2776;51.046;6.772;2023-04-02T05:40:09;6.60;99.90
5508;DHT22;2776;51.046;6.772;2023-04-02T05:42:38;6.60;99.90
5508;DHT22;2776;51.046;6.772;2023-04-02T05:45:18;6.60;99.90
5508;DHT22;2776;51.046;6.772;2023-04-02T05:47:47;6.60;99.90
5508;DHT22;2776;51.046;6.772;2023-04-02T05:50:21;6.50;99.90
5508;DHT22;2776;51.046;6.772;2023-04-02T05:52:53;6.50;99.90
5508;DHT22;2776;51.046;6.772;2023-04-02T05:55:29;6.50;99.90
5508;DHT22;2776;51.046;6.772;2023-04-02T05:58:01;6.50;99.90
5508;DHT22;2776;51.046;6.772;2023-04-02T06:00:50;6.40;99.90
5508;DHT22;2776;51.046;6.772;2023-04-02T06:03:23;6.40;99.90
5508;DHT22;2776;51.046;6.772;2023-04-02T06:05:56;6.40;99.90
5508;DHT22;2776;51.046;6.772;2023-04-02T06:08:30;6.40;99.90
5508;DHT22;2776;51.046;6.772;2023-04-02T06:11:04;6.40;99.90
5508;DHT22;2776;51.046;6.772;2023-04-02T06:13:33;6.30;99.90
5508;DHT22;2776;51.046;6.772;2023-04-02T06:16:00;6.30;99.90
5508;DHT22;2776;51.046;6.772;2023-04-02T06:18:29;6.30;99.90
5508;DHT22;2776;51.046;6.772;2023-04-02T06:20:57;6.30;99.90
5508;DHT22;2776;51.046;6.772;2023-04-02T06:23:30;6.30;99.90
5508;DHT22;2776;51.046;6.772;2023-04-02T06:26:01;6.30;99.90
5508;DHT22;2776;51.046;6.772;2023-04-02T06:28:36;6.20;99.90
5508;DHT22;2776;51.046;6.772;2023-04-02T06:31:08;6.10;99.90
5508;DHT22;2776;51.046;6.772;2023-04-02T06:33:36;6.10;99.90
5508;DHT22;2776;51.046;6.772;2023-04-02T06:36:04;6.10;99.90
5508;DHT22;2776;51.046;6.772;2023-04-02T06:38:34;6.00;99.90
5508;DHT22;2776;51.046;6.772;2023-04-02T06:41:04;6.00;99.90
5508;DHT22;2776;51.046;6.772;2023-04-02T06:43:34;6.00;99.90
5508;DHT22;2776;51.046;6.772;2023-04-02T06:46:06;6.00;99.90
5508;DHT22;2776;51.046;6.772;2023-04-02T06:48:35;6.00;99.90
5508;DHT22;2776;51.046;6.772;2023-04-02T06:51:05;5.90;99.90
5508;DHT22;2776;51.046;6.772;2023-04-02T06:53:36;5.90;99.90
5508;DHT22;2776;51.046;6.772;2023-04-02T06:56:05;6.00;99.90
5508;DHT22;2776;51.046;6.772;2023-04-02T06:58:35;5.90;99.90
5508;DHT22;2776;51.046;6.772;2023-04-02T07:01:02;5.90;99.90
5508;DHT22;2776;51.046;6.772;2023-04-02T07:03:30;5.90;99.90
5508;DHT22;2776;51.046;6.772;2023-04-02T07:05:59;5.90;99.90
5508;DHT22;2776;51.046;6.772;2023-04-02T07:08:27;5.90;99.90
5508;DHT22;2776;51.046;6.772;2023-04-02T07:10:55;5.90;99.90
5508;DHT22;2776;51.046;6.772;2023-04-02T07:13:23;6.00;99.90
5508;DHT22;2776;51.046;6.772;2023-04-02T07:15:52;6.00;99.90
5508;DHT22;2776;51.046;6.772;2023-04-02T07:18:24;6.10;99.90
5508;DHT22;2776;51.046;6.772;2023-04-02T07:20:51;6.20;99.90
5508;DHT22;2776;51.046;6.772;2023-04-02T07:23:18;6.20;99.90
5508;DHT22;2776;51.046;6.772;2023-04-02T07:25:46;6.30;99.90
5508;DHT22;2776;51.046;6.772;2023-04-02T07:28:14;6.30;99.90
5508;DHT22;2776;51.046;6.772;2023-04-02T07:30:41;6.40;99.90
5508;DHT22;2776;51.046;6.772;2023-04-02T07:33:11;6.50;99.90
5508;DHT22;2776;51.046;6.772;2023-04-02T07:35:38;6.50;99.90
5508;DHT22;2776;51.046;6.772;2023-04-02T07:38:05;6.50;99.90
5508;DHT22;2776;51.046;6.772;2023-04-02T07:40:32;6.50;99.90
5508;DHT22;2776;51.046;6.772;2023-04-02T07:42:58;6.40;99.90
5508;DHT22;2776;51.046;6.772;2023-04-02T07:45:27;6.40;99.90
5508;DHT22;2776;51.046;6.772;2023-04-02T07:47:54;6.40;99.90
5508;DHT22;2776;51.046;6.772;2023-04-02T07:50:21;6.30;99.90
5508;DHT22;2776;51.046;6.772;2023-04-02T07:52:48;6.30;99.90
5508;DHT22;2776;51.046;6.772;2023-04-02T07:55:15;6.30;99.90
5508;DHT22;2776;51.046;6.772;2023-04-02T07:57:47;6.30;99.90
5508;DHT22;2776;51.046;6.772;2023-04-02T08:00:15;6.30;99.90
5508;DHT22;2776;51.046;6.772;2023-04-02T08:02:44;6.40;99.90
5508;DHT22;2776;51.046;6.772;2023-04-02T08:05:10;6.40;99.90
5508;DHT22;2776;51.046;6.772;2023-04-02T08:07:37;6.50;99.90
5508;DHT22;2776;51.046;6.772;2023-04-02T08:10:06;6.60;99.90
5508;DHT22;2776;51.046;6.772;2023-04-02T08:12:33;6.60;99.90
5508;DHT22;2776;51.046;6.772;2023-04-02T08:14:59;6.60;99.90
5508;DHT22;2776;51.046;6.772;2023-04-02T08:17:27;6.60;99.90
5508;DHT22;2776;51.046;6.772;2023-04-02T08:19:57;6.60;99.90
5508;DHT22;2776;51.046;6.772;2023-04-02T08:22:25;6.70;99.90
5508;DHT22;2776;51.046;6.772;2023-04-02T08:24:53;6.70;99.90
5508;DHT22;2776;51.046;6.772;2023-04-02T08:27:21;6.70;99.90
5508;DHT22;2776;51.046;6.772;2023-04-02T08:29:47;6.80;99.90
5508;DHT22;2776;51.046;6.772;2023-04-02T08:32:15;6.80;99.90
5508;DHT22;2776;51.046;6.772;2023-04-02T08:34:41;6.80;99.90
5508;DHT22;2776;51.046;6.772;2023-04-02T08:37:11;6.70;99.90
5508;DHT22;2776;51.046;6.772;2023-04-02T08:39:38;6.50;99.90
5508;DHT22;2776;51.046;6.772;2023-04-02T08:42:08;6.50;99.90
5508;DHT22;2776;51.046;6.772;2023-04-02T08:44:45;6.50;99.90
5508;DHT22;2776;51.046;6.772;2023-04-02T08:47:18;6.50;99.90
5508;DHT22;2776;51.046;6.772;2023-04-02T08:49:49;6.50;99.90
5508;DHT22;2776;51.046;6.772;2023-04-02T08:52:23;6.60;99.90
5508;DHT22;2776;51.046;6.772;2023-04-02T08:54:51;6.40;99.90
5508;DHT22;2776;51.046;6.772;2023-04-02T08:57:27;6.50;99.90
5508;DHT22;2776;51.046;6.772;2023-04-02T08:59:59;6.50;99.90
5508;DHT22;2776;51.046;6.772;2023-04-02T09:02:34;6.50;99.90
5508;DHT22;2776;51.046;6.772;2023-04-02T09:05:05;6.50;99.90
5508;DHT22;2776;51.046;6.772;2023-04-02T09:07:34;6.50;99.90
5508;DHT22;2776;51.046;6.772;2023-04-02T09:10:01;6.70;99.90
5508;DHT22;2776;51.046;6.772;2023-04-02T09:12:29;6.70;99.90
5508;DHT22;2776;51.046;6.772;2023-04-02T09:15:05;6.80;99.90
5508;DHT22;2776;51.046;6.772;2023-04-02T09:17:38;6.70;99.90
5508;DHT22;2776;51.046;6.772;2023-04-02T09:20:14;6.80;99.90
5508;DHT22;2776;51.046;6.772;2023-04-02T09:22:44;6.80;99.90
5508;DHT22;2776;51.046;6.772;2023-04-02T09:25:15;6.80;99.90
5508;DHT22;2776;51.046;6.772;2023-04-02T09:27:47;6.90;99.90
5508;DHT22;2776;51.046;6.772;2023-04-02T09:30:23;7.00;99.90
5508;DHT22;2776;51.046;6.772;2023-04-02T09:32:54;7.10;99.90
5508;DHT22;2776;51.046;6.772;2023-04-02T09:35:23;7.10;99.90
5508;DHT22;2776;51.046;6.772;2023-04-02T09:38:10;7.00;99.90
5508;DHT22;2776;51.046;6.772;2023-04-02T09:40:45;6.90;99.90
5508;DHT22;2776;51.046;6.772;2023-04-02T09:43:14;6.90;99.90
5508;DHT22;2776;51.046;6.772;2023-04-02T09:45:42;6.80;99.90
5508;DHT22;2776;51.046;6.772;2023-04-02T09:48:20;6.70;99.90
5508;DHT22;2776;51.046;6.772;2023-04-02T09:50:47;6.70;99.90
5508;DHT22;2776;51.046;6.772;2023-04-02T09:53:29;6.70;99.90
5508;DHT22;2776;51.046;6.772;2023-04-02T09:56:14;6.70;99.90
5508;DHT22;2776;51.046;6.772;2023-04-02T09:58:43;6.80;99.90
5508;DHT22;2776;51.046;6.772;2023-04-02T10:01:26;6.80;99.90
5508;DHT22;2776;51.046;6.772;2023-04-02T10:03:54;6.80;99.90
5508;DHT22;2776;51.046;6.772;2023-04-02T10:06:21;6.90;99.90
5508;DHT22;2776;51.046;6.772;2023-04-02T10:08:49;6.90;99.90
5508;DHT22;2776;51.046;6.772;2023-04-02T10:11:18;7.00;99.90
5508;DHT22;2776;51.046;6.772;2023-04-02T10:13:51;7.10;99.90
5508;DHT22;2776;51.046;6.772;2023-04-02T10:16:23;7.10;99.90
5508;DHT22;2776;51.046;6.772;2023-04-02T10:18:55;7.20;99.90
5508;DHT22;2776;51.046;6.772;2023-04-02T10:21:24;7.30;99.90
5508;DHT22;2776;51.046;6.772;2023-04-02T10:23:53;7.30;99.90
5508;DHT22;2776;51.046;6.772;2023-04-02T10:26:47;7.40;99.90
5508;DHT22;2776;51.046;6.772;2023-04-02T10:29:29;7.40;99.90
5508;DHT22;2776;51.046;6.772;2023-04-02T10:32:04;7.40;99.90
5508;DHT22;2776;51.046;6.772;2023-04-02T10:34:37;7.40;99.90
5508;DHT22;2776;51.046;6.772;2023-04-02T10:37:20;7.50;99.90
5508;DHT22;2776;51.046;6.772;2023-04-02T10:39:56;7.60;99.90
5508;DHT22;2776;51.046;6.772;2023-04-02T10:42:31;7.70;99.90
5508;DHT22;2776;51.046;6.772;2023-04-02T10:45:03;7.80;99.90
5508;DHT22;2776;51.046;6.772;2023-04-02T10:47:38;7.80;99.90
5508;DHT22;2776;51.046;6.772;2023-04-02T10:50:24;7.90;99.90
5508;DHT22;2776;51.046;6.772;2023-04-02T10:52:57;7.80;99.90
5508;DHT22;2776;51.046;6.772;2023-04-02T10:55:34;7.80;99.90
5508;DHT22;2776;51.046;6.772;2023-04-02T10:58:12;7.90;99.90
5508;DHT22;2776;51.046;6.772;2023-04-02T11:00:41;8.00;99.90
5508;DHT22;2776;51.046;6.772;2023-04-02T11:03:13;8.10;99.90
5508;DHT22;2776;51.046;6.772;2023-04-02T11:05:45;8.00;99.90
5508;DHT22;2776;51.046;6.772;2023-04-02T11:08:16;8.00;99.90
5508;DHT22;2776;51.046;6.772;2023-04-02T11:10:47;8.00;99.90
5508;DHT22;2776;51.046;6.772;2023-04-02T11:13:19;8.00;99.90
5508;DHT22;2776;51.046;6.772;2023-04-02T11:15:47;7.90;99.90
5508;DHT22;2776;51.046;6.772;2023-04-02T11:18:23;7.90;99.90
5508;DHT22;2776;51.046;6.772;2023-04-02T11:20:56;7.90;99.90
5508;DHT22;2776;51.046;6.772;2023-04-02T11:23:30;7.80;99.90
5508;DHT22;2776;51.046;6.772;2023-04-02T11:26:28;7.80;99.90
5508;DHT22;2776;51.046;6.772;2023-04-02T11:29:14;7.80;99.90
5508;DHT22;2776;51.046;6.772;2023-04-02T11:31:43;7.90;99.90
5508;DHT22;2776;51.046;6.772;2023-04-02T11:34:15;7.90;99.90
5508;DHT22;2776;51.046;6.772;2023-04-02T11:37:05;8.10;99.90
5508;DHT22;2776;51.046;6.772;2023-04-02T11:39:52;8.20;99.90
5508;DHT22;2776;51.046;6.772;2023-04-02T11:42:26;8.30;99.90
5508;DHT22;2776;51.046;6.772;2023-04-02T11:44:55;8.40;99.90
5508;DHT22;2776;51.046;6.772;2023-04-02T11:47:23;8.30;99.90
5508;DHT22;2776;51.046;6.772;2023-04-02T11:50:00;8.20;99.90
5508;DHT22;2776;51.046;6.772;2023-04-02T11:52:34;8.10;99.90
5508;DHT22;2776;51.046;6.772;2023-04-02T11:55:28;8.10;99.90
5508;DHT22;2776;51.046;6.772;2023-04-02T11:58:26;8.00;99.90
5508;DHT22;2776;51.046;6.772;2023-04-02T12:01:26;8.10;99.90
5508;DHT22;2776;51.046;6.772;2023-04-02T12:04:31;7.90;99.90
5508;DHT22;2776;51.046;6.772;2023-04-02T12:07:38;8.00;99.90
5508;DHT22;2776;51.046;6.772;2023-04-02T12:10:19;8.20;99.90
5508;DHT22;2776;51.046;6.772;2023-04-02T12:12:48;8.20;99.90
5508;DHT22;2776;51.046;6.772;2023-04-02T12:15:43;8.30;99.90
5508;DHT22;2776;51.046;6.772;2023-04-02T12:18:22;8.30;99.90
5508;DHT22;2776;51.046;6.772;2023-04-02T12:20:55;8.30;99.90
5508;DHT22;2776;51.046;6.772;2023-04-02T12:23:44;8.30;99.90
5508;DHT22;2776;51.046;6.772;2023-04-02T12:26:33;8.30;99.90
5508;DHT22;2776;51.046;6.772;2023-04-02T12:29:23;8.40;99.90
5508;DHT22;2776;51.046;6.772;2023-04-02T12:32:03;8.40;99.90
5508;DHT22;2776;51.046;6.772;2023-04-02T12:34:59;8.50;99.90
5508;DHT22;2776;51.046;6.772;2023-04-02T12:37:30;8.60;99.90
5508;DHT22;2776;51.046;6.772;2023-04-02T12:40:12;8.60;99.90
5508;DHT22;2776;51.046;6.772;2023-04-02T12:42:57;8.60;99.90
5508;DHT22;2776;51.046;6.772;2023-04-02T12:45:37;8.40;99.90
5508;DHT22;2776;51.046;6.772;2023-04-02T12:48:17;8.60;99.90
5508;DHT22;2776;51.046;6.772;2023-04-02T12:50:53;8.40;99.90
5508;DHT22;2776;51.046;6.772;2023-04-02T12:53:37;8.50;99.90
5508;DHT22;2776;51.046;6.772;2023-04-02T12:56:20;8.60;99.90
5508;DHT22;2776;51.046;6.772;2023-04-02T12:59:04;8.60;99.90
5508;DHT22;2776;51.046;6.772;2023-04-02T13:02:15;8.70;99.90
5508;DHT22;2776;51.046;6.772;2023-04-02T13:04:51;8.80;99.90
5508;DHT22;2776;51.046;6.772;2023-04-02T13:07:30;8.90;99.90
5508;DHT22;2776;51.046;6.772;2023-04-02T13:10:23;8.90;99.90
5508;DHT22;2776;51.046;6.772;2023-04-02T13:12:57;9.00;99.90
5508;DHT22;2776;51.046;6.772;2023-04-02T13:15:28;8.80;99.90
5508;DHT22;2776;51.046;6.772;2023-04-02T13:18:18;8.80;99.90
5508;DHT22;2776;51.046;6.772;2023-04-02T13:21:30;8.70;99.90
5508;DHT22;2776;51.046;6.772;2023-04-02T13:24:30;8.60;99.90
5508;DHT22;2776;51.046;6.772;2023-04-02T13:27:16;8.50;99.90
5508;DHT22;2776;51.046;6.772;2023-04-02T13:29:52;8.50;99.90
5508;DHT22;2776;51.046;6.772;2023-04-02T13:32:30;8.60;99.90
5508;DHT22;2776;51.046;6.772;2023-04-02T13:35:11;8.60;99.90
5508;DHT22;2776;51.046;6.772;2023-04-02T13:37:55;8.60;99.90
5508;DHT22;2776;51.046;6.772;2023-04-02T13:40:43;8.50;99.90
5508;DHT22;2776;51.046;6.772;2023-04-02T13:43:22;8.60;99.90
5508;DHT22;2776;51.046;6.772;2023-04-02T13:46:11;8.60;99.90
5508;DHT22;2776;51.046;6.772;2023-04-02T13:49:17;8.70;99.90
5508;DHT22;2776;51.046;6.772;2023-04-02T13:52:04;8.70;99.90
5508;DHT22;2776;51.046;6.772;2023-04-02T13:55:02;8.80;99.90
5508;DHT22;2776;51.046;6.772;2023-04-02T13:57:36;8.80;99.90
5508;DHT22;2776;51.046;6.772;2023-04-02T14:00:23;8.80;99.90
5508;DHT22;2776;51.046;6.772;2023-04-02T14:03:02;8.70;99.90
5508;DHT22;2776;51.046;6.772;2023-04-02T14:05:55;8.60;99.90
5508;DHT22;2776;51.046;6.772;2023-04-02T14:08:56;8.40;99.90
5508;DHT22;2776;51.046;6.772;2023-04-02T14:11:51;8.40;99.90
5508;DHT22;2776;51.046;6.772;2023-04-02T14:17:59;8.50;99.90
5508;DHT22;2776;51.046;6.772;2023-04-02T14:20:59;8.50;99.90
5508;DHT22;2776;51.046;6.772;2023-04-02T14:27:27;8.30;99.90
5508;DHT22;2776;51.046;6.772;2023-04-02T14:30:22;8.20;99.90
5508;DHT22;2776;51.046;6.772;2023-04-02T14:33:24;8.10;99.90
5508;DHT22;2776;51.046;6.772;2023-04-02T14:36:21;8.10;99.90
5508;DHT22;2776;51.046;6.772;2023-04-02T14:39:12;8.10;99.90
5508;DHT22;2776;51.046;6.772;2023-04-02T14:41:59;8.00;99.90
5508;DHT22;2776;51.046;6.772;2023-04-02T14:44:54;8.00;99.90
5508;DHT22;2776;51.046;6.772;2023-04-02T14:47:38;8.10;99.90
5508;DHT22;2776;51.046;6.772;2023-04-02T14:50:20;8.10;99.90
5508;DHT22;2776;51.046;6.772;2023-04-02T14:53:20;8.10;99.90
5508;DHT22;2776;51.046;6.772;2023-04-02T14:56:09;8.20;99.90
5508;DHT22;2776;51.046;6.772;2023-04-02T14:58:59;8.20;99.90
5508;DHT22;2776;51.046;6.772;2023-04-02T15:01:57;8.10;99.90
5508;DHT22;2776;51.046;6.772;2023-04-02T15:04:41;8.10;99.90
5508;DHT22;2776;51.046;6.772;2023-04-02T15:07:30;8.20;99.90
5508;DHT22;2776;51.046;6.772;2023-04-02T15:10:25;8.10;99.90
5508;DHT22;2776;51.046;6.772;2023-04-02T15:13:11;8.10;99.90
5508;DHT22;2776;51.046;6.772;2023-04-02T15:15:55;8.20;99.90
5508;DHT22;2776;51.046;6.772;2023-04-02T15:18:49;8.10;99.90
5508;DHT22;2776;51.046;6.772;2023-04-02T15:21:54;8.10;99.90
5508;DHT22;2776;51.046;6.772;2023-04-02T15:24:48;8.10;99.90
5508;DHT22;2776;51.046;6.772;2023-04-02T15:27:43;8.10;99.90
5508;DHT22;2776;51.046;6.772;2023-04-02T15:30:40;8.10;99.90
5508;DHT22;2776;51.046;6.772;2023-04-02T15:33:40;8.00;99.90
5508;DHT22;2776;51.046;6.772;2023-04-02T15:37:05;7.90;99.90
5508;DHT22;2776;51.046;6.772;2023-04-02T15:39:39;7.80;99.90
5508;DHT22;2776;51.046;6.772;2023-04-02T15:42:14;7.70;99.90
5508;DHT22;2776;51.046;6.772;2023-04-02T15:44:51;7.50;99.90
5508;DHT22;2776;51.046;6.772;2023-04-02T15:47:27;7.50;99.90
5508;DHT22;2776;51.046;6.772;2023-04-02T15:50:06;7.50;99.90
5508;DHT22;2776;51.046;6.772;2023-04-02T15:52:45;7.60;99.90
5508;DHT22;2776;51.046;6.772;2023-04-02T15:55:20;7.70;99.90
5508;DHT22;2776;51.046;6.772;2023-04-02T15:58:12;7.70;99.90
5508;DHT22;2776;51.046;6.772;2023-04-02T16:00:49;7.70;99.90
5508;DHT22;2776;51.046;6.772;2023-04-02T16:03:40;7.80;99.90
5508;DHT22;2776;51.046;6.772;2023-04-02T16:06:24;7.90;99.90
5508;DHT22;2776;51.046;6.772;2023-04-02T16:09:06;7.90;99.90
5508;DHT22;2776;51.046;6.772;2023-04-02T16:11:37;7.90;99.90
5508;DHT22;2776;51.046;6.772;2023-04-02T16:14:19;8.00;99.90
5508;DHT22;2776;51.046;6.772;2023-04-02T16:16:49;8.00;99.90
5508;DHT22;2776;51.046;6.772;2023-04-02T16:19:24;7.90;99.90
5508;DHT22;2776;51.046;6.772;2023-04-02T16:21:57;7.80;99.90
5508;DHT22;2776;51.046;6.772;2023-04-02T16:24:27;7.70;99.90
5508;DHT22;2776;51.046;6.772;2023-04-02T16:26:57;7.70;99.90
5508;DHT22;2776;51.046;6.772;2023-04-02T16:29:41;7.70;99.90
5508;DHT22;2776;51.046;6.772;2023-04-02T16:32:29;7.70;99.90
5508;DHT22;2776;51.046;6.772;2023-04-02T16:35:06;7.80;99.90
5508;DHT22;2776;51.046;6.772;2023-04-02T16:37:44;7.90;99.90
5508;DHT22;2776;51.046;6.772;2023-04-02T16:40:26;7.90;99.90
5508;DHT22;2776;51.046;6.772;2023-04-02T16:43:03;7.90;99.90
5508;DHT22;2776;51.046;6.772;2023-04-02T16:45:37;7.90;99.90
5508;DHT22;2776;51.046;6.772;2023-04-02T16:48:11;7.90;99.90
5508;DHT22;2776;51.046;6.772;2023-04-02T16:50:46;7.80;99.90
5508;DHT22;2776;51.046;6.772;2023-04-02T16:53:23;7.70;99.90
5508;DHT22;2776;51.046;6.772;2023-04-02T16:58:52;7.80;99.90
5508;DHT22;2776;51.046;6.772;2023-04-02T17:01:26;7.80;99.90
5508;DHT22;2776;51.046;6.772;2023-04-02T17:04:23;7.90;99.90
5508;DHT22;2776;51.046;6.772;2023-04-02T17:06:58;7.90;99.90
5508;DHT22;2776;51.046;6.772;2023-04-02T17:09:32;7.90;99.90
5508;DHT22;2776;51.046;6.772;2023-04-02T17:12:13;8.00;99.90
5508;DHT22;2776;51.046;6.772;2023-04-02T17:14:43;8.10;99.90
5508;DHT22;2776;51.046;6.772;2023-04-02T17:17:13;8.10;99.90
5508;DHT22;2776;51.046;6.772;2023-04-02T17:19:42;8.10;99.90
5508;DHT22;2776;51.046;6.772;2023-04-02T17:22:14;8.20;99.90
5508;DHT22;2776;51.046;6.772;2023-04-02T17:24:46;8.20;99.90